Gus'-Khrustal'ny, Russia
Current Conditions -  °F | °C
As of 12:00 PM on Saturday 25 Oct 2014 (Local Time) from UUDD Reporting Station
Clear Clear  
Wind Chill: 17°   Ceiling: Unl
Heat Index: 23°   Visibility: 6mi
Dew Point: 12°   Wind: 4mph
Humidity: 63%   Direction: NA
Pressure: 30.68"   Gusts: NA
Location:  55.6°N, 40.65°E
Report Text: UUDD 250900Z VRB02MPS CAVOK M05/M11 Q1039 32010095 82010095NOSIG
Loading
Personal Weather Stations






























Interactive Weather Map
Tropical Storm Tracking
New forecast layout! Learn more

10-Day Weather Forecast

Advertisements
Track Severe Weather on mobile